Time;durP1;ratioP1;P1;durP2;ratioP2;P2;SDS_P1;SDS_P2;PMS_P1;PMS_P2;Temp;Humidity;BMP_temperature;BMP_pressure;BME280_temperature;BME280_humidity;BME280_pressure;Samples;Min_cycle;Max_cycle;Signal;HPM_P1;HPM_P2
2022/04/04 00:02:03;;;;;;;11.40;9.17;;;;;;;-1.30;99.38;97082.19;5071451;28;20392;-67
2022/04/04 00:04:29;;;;;;;11.60;8.70;;;;;;;-1.41;99.28;97087.53;5071919;28;20736;-65
2022/04/04 00:06:55;;;;;;;10.27;9.13;;;;;;;-1.26;98.78;97088.66;5070642;28;20755;-66
2022/04/04 00:09:20;;;;;;;11.98;9.48;;;;;;;-1.46;100.00;97086.34;5071787;28;20459;-67
2022/04/04 00:11:45;;;;;;;10.93;8.83;;;;;;;-1.48;100.00;97080.53;5071624;28;20391;-66
2022/04/04 00:14:11;;;;;;;10.20;9.00;;;;;;;-1.33;100.00;97076.50;5071519;28;20471;-67
2022/04/04 00:16:36;;;;;;;11.60;9.60;;;;;;;-1.38;99.54;97084.66;5071976;28;20791;-67
2022/04/04 00:19:02;;;;;;;11.10;9.57;;;;;;;-1.38;99.57;97083.84;5054357;28;20391;-66
2022/04/04 00:21:28;;;;;;;12.77;9.32;;;;;;;-1.61;100.00;97080.88;5071924;28;20814;-66
2022/04/04 00:23:54;;;;;;;11.18;9.23;;;;;;;-1.45;100.00;97078.47;5072441;28;20456;-67
2022/04/04 00:26:19;;;;;;;10.55;9.13;;;;;;;-1.61;100.00;97070.59;5071388;28;20428;-67
2022/04/04 00:28:44;;;;;;;10.90;8.97;;;;;;;-1.60;100.00;97073.97;5071937;28;20482;-66
2022/04/04 00:31:10;;;;;;;11.10;9.00;;;;;;;-1.57;100.00;97076.25;5071224;28;20395;-67
2022/04/04 00:33:35;;;;;;;11.10;8.38;;;;;;;-1.63;100.00;97067.38;5053298;28;20486;-65
2022/04/04 00:36:01;;;;;;;10.38;8.68;;;;;;;-1.50;100.00;97072.16;5071339;28;20461;-66
2022/04/04 00:38:28;;;;;;;11.32;8.95;;;;;;;-1.59;100.00;97067.88;5071226;28;20769;-66
2022/04/04 00:40:54;;;;;;;11.77;9.30;;;;;;;-1.61;100.00;97073.16;5071605;28;20426;-66
2022/04/04 00:43:20;;;;;;;11.60;9.43;;;;;;;-1.40;99.17;97066.03;5071071;28;20409;-65
2022/04/04 00:45:46;;;;;;;10.57;9.47;;;;;;;-1.48;98.97;97065.13;5070782;28;20481;-67
2022/04/04 00:48:11;;;;;;;12.00;8.77;;;;;;;-1.56;100.00;97076.09;5066052;28;20921;-67
2022/04/04 00:50:37;;;;;;;12.05;9.45;;;;;;;-1.49;99.42;97072.00;5061510;28;20417;-67
2022/04/04 00:53:02;;;;;;;11.40;8.60;;;;;;;-1.35;98.62;97075.88;5070871;28;20744;-67
2022/04/04 00:55:28;;;;;;;11.53;9.00;;;;;;;-1.33;98.18;97079.06;5070096;28;20380;-66
2022/04/04 00:57:55;;;;;;;11.43;9.03;;;;;;;-1.57;99.47;97066.81;5054818;28;20395;-66
2022/04/04 01:00:20;;;;;;;10.32;8.68;;;;;;;-1.73;100.00;97066.63;5070253;28;20395;-67
2022/04/04 01:02:46;;;;;;;10.00;8.60;;;;;;;-1.59;99.71;97063.56;5070782;28;20922;-66
2022/04/04 01:05:12;;;;;;;9.63;8.63;;;;;;;-1.69;99.79;97060.25;5053517;28;20407;-66
2022/04/04 01:07:39;;;;;;;9.27;8.32;;;;;;;-1.60;100.00;97061.94;5071238;28;20406;-66
2022/04/04 01:10:06;;;;;;;12.68;8.30;;;;;;;-1.57;99.21;97059.09;5071370;28;20419;-65
2022/04/04 01:12:32;;;;;;;9.90;8.60;;;;;;;-1.52;98.13;97059.47;5070875;28;20395;-66
2022/04/04 01:14:58;;;;;;;9.40;8.32;;;;;;;-1.56;98.58;97065.03;5070862;28;20753;-68
2022/04/04 01:17:27;;;;;;;9.73;8.10;;;;;;;-1.45;97.79;97060.47;5071002;28;20379;-66
2022/04/04 01:19:53;;;;;;;10.13;8.45;;;;;;;-1.37;96.64;97060.56;5071089;28;20387;-67
2022/04/04 01:22:19;;;;;;;13.45;8.63;;;;;;;-1.36;95.37;97056.25;5071487;28;20408;-67
2022/04/04 01:24:45;;;;;;;9.38;8.40;;;;;;;-1.41;96.43;97059.25;5070648;28;20419;-66
2022/04/04 01:27:12;;;;;;;8.80;7.90;;;;;;;-1.37;95.70;97059.75;5072135;28;20423;-66
2022/04/04 01:29:38;;;;;;;8.20;7.40;;;;;;;-1.41;95.20;97059.25;5074832;28;20420;-67
2022/04/04 01:32:04;;;;;;;8.40;7.50;;;;;;;-1.46;96.45;97058.06;5074836;28;20388;-65
2022/04/04 01:34:30;;;;;;;8.73;7.43;;;;;;;-1.58;95.69;97054.91;5056742;28;20733;-66
2022/04/04 01:36:56;;;;;;;8.93;7.55;;;;;;;-1.51;95.16;97052.56;5074669;28;20391;-66
2022/04/04 01:39:22;;;;;;;9.75;8.05;;;;;;;-1.65;96.13;97048.72;5074448;28;20395;-66
2022/04/04 01:41:48;;;;;;;8.13;7.32;;;;;;;-1.73;97.43;97044.28;5074138;28;20392;-67
2022/04/04 01:44:13;;;;;;;9.47;7.40;;;;;;;-1.71;97.68;97039.00;5074266;28;20490;-67
2022/04/04 01:46:38;;;;;;;8.57;7.20;;;;;;;-1.81;97.81;97039.06;5074282;28;20800;-66
2022/04/04 01:49:05;;;;;;;8.82;8.00;;;;;;;-1.87;97.81;97037.06;5072872;28;20744;-68
2022/04/04 01:51:33;;;;;;;8.82;7.63;;;;;;;-1.92;98.09;97029.00;5074374;28;20788;-66
2022/04/04 01:53:59;;;;;;;8.57;7.65;;;;;;;-1.66;97.45;97031.66;5074226;28;20410;-66
2022/04/04 01:56:24;;;;;;;9.40;7.73;;;;;;;-1.88;97.75;97035.44;5074760;28;20407;-66
2022/04/04 01:58:50;;;;;;;9.38;7.78;;;;;;;-1.80;97.33;97032.16;5074466;28;20396;-66
2022/04/04 02:01:23;;;;;;;9.45;7.80;;;;;;;-1.87;96.43;97034.50;5074414;28;20448;-66
2022/04/04 02:03:52;;;;;;;8.30;7.40;;;;;;;-1.77;96.55;97037.00;5074429;28;20419;-66
2022/04/04 02:06:18;;;;;;;8.52;7.63;;;;;;;-1.75;96.23;97040.25;5073990;28;20404;-66
2022/04/04 02:08:44;;;;;;;10.50;8.18;;;;;;;-1.72;96.08;97027.91;5056249;28;20399;-66
2022/04/04 02:11:10;;;;;;;9.00;7.97;;;;;;;-1.98;97.30;97032.13;5074188;28;20768;-66
2022/04/04 02:13:36;;;;;;;11.73;8.90;;;;;;;-1.97;98.32;97026.03;5074132;28;20467;-67
2022/04/04 02:16:02;;;;;;;10.23;8.40;;;;;;;-1.90;99.04;97026.28;5055916;28;20426;-67
2022/04/04 02:18:28;;;;;;;10.45;9.27;;;;;;;-1.67;97.19;97016.44;5055553;28;20418;-66
2022/04/04 02:20:54;;;;;;;10.27;8.90;;;;;;;-1.88;97.96;97024.38;5073779;28;20883;-67
2022/04/04 02:23:20;;;;;;;11.55;9.48;;;;;;;-1.92;99.87;97013.56;5074040;28;20400;-66
2022/04/04 02:25:50;;;;;;;11.33;9.70;;;;;;;-1.90;99.87;97010.88;5073534;28;20433;-66
2022/04/04 02:28:16;;;;;;;11.68;10.38;;;;;;;-2.04;100.00;97019.03;5033714;28;20784;-67
2022/04/04 02:30:44;;;;;;;12.23;10.40;;;;;;;-2.31;100.00;97007.81;5033362;28;20401;-67
2022/04/04 02:33:10;;;;;;;12.15;10.38;;;;;;;-1.92;100.00;97007.63;5033862;28;20485;-66
2022/04/04 02:35:36;;;;;;;13.88;10.57;;;;;;;-2.26;100.00;97004.81;5032497;28;20899;-66
2022/04/04 02:38:02;;;;;;;12.00;10.63;;;;;;;-2.48;100.00;97013.69;5032439;28;20771;-67
2022/04/04 02:40:28;;;;;;;13.67;10.60;;;;;;;-2.41;100.00;97013.94;5033382;28;20413;-66
2022/04/04 02:42:54;;;;;;;13.35;10.80;;;;;;;-2.53;100.00;97003.03;5033538;28;20391;-66
2022/04/04 02:45:19;;;;;;;12.25;10.48;;;;;;;-2.40;100.00;97005.28;5032349;28;20771;-67
2022/04/04 02:47:45;;;;;;;14.95;11.02;;;;;;;-2.42;100.00;97002.03;5031143;28;20924;-65
2022/04/04 02:50:11;;;;;;;11.55;10.25;;;;;;;-2.35;100.00;96997.97;5033420;28;20483;-66
2022/04/04 02:52:37;;;;;;;16.63;10.50;;;;;;;-2.32;100.00;97000.25;5032989;28;20402;-66
2022/04/04 02:57:50;;;;;;;12.50;10.98;;;;;;;-2.06;100.00;97013.25;5033294;28;20461;-67
2022/04/04 03:00:19;;;;;;;15.07;12.02;;;;;;;-2.25;100.00;97006.44;5033355;28;20406;-66
2022/04/04 03:02:48;;;;;;;14.50;11.27;;;;;;;-2.46;100.00;97000.72;5031981;28;20403;-65
2022/04/04 03:05:14;;;;;;;13.88;11.80;;;;;;;-2.53;100.00;96997.91;5032192;28;20904;-65
2022/04/04 03:07:40;;;;;;;14.23;12.20;;;;;;;-2.57;100.00;96988.88;5033517;28;20929;-65
2022/04/04 03:10:06;;;;;;;15.50;12.57;;;;;;;-2.65;100.00;96997.25;5032639;28;20961;-65
2022/04/04 03:12:32;;;;;;;16.63;13.13;;;;;;;-2.72;100.00;96991.06;5032988;28;20399;-66
2022/04/04 03:14:58;;;;;;;14.48;12.70;;;;;;;-2.73;100.00;96998.91;5033078;28;20449;-66
2022/04/04 03:17:25;;;;;;;19.38;14.25;;;;;;;-2.72;100.00;96992.81;5031809;28;20438;-66
2022/04/04 03:19:51;;;;;;;18.38;14.30;;;;;;;-2.54;100.00;96983.44;5031476;28;20756;-66
2022/04/04 03:22:17;;;;;;;18.43;14.90;;;;;;;-2.65;100.00;96986.19;5032965;28;20856;-65
2022/04/04 03:24:43;;;;;;;16.95;14.65;;;;;;;-2.86;100.00;96996.63;5048088;28;20403;-66
2022/04/04 03:27:13;;;;;;;18.98;15.57;;;;;;;-2.65;100.00;96986.19;5054996;28;20415;-67
2022/04/04 03:29:39;;;;;;;18.40;14.82;;;;;;;-2.57;100.00;96994.00;5073224;28;20391;-67
2022/04/04 03:32:04;;;;;;;17.60;15.03;;;;;;;-3.03;100.00;96992.22;5072575;28;20796;-66
2022/04/04 03:34:30;;;;;;;18.25;14.93;;;;;;;-2.90;100.00;96992.72;5072069;28;20434;-66
2022/04/04 03:36:55;;;;;;;18.03;14.70;;;;;;;-2.91;100.00;96988.56;5072719;28;20384;-66
2022/04/04 03:39:21;;;;;;;22.20;14.93;;;;;;;-3.05;100.00;96992.34;5054551;28;20402;-66
2022/04/04 03:41:47;;;;;;;17.67;14.93;;;;;;;-2.88;100.00;96990.81;5072122;28;20387;-66
2022/04/04 03:44:12;;;;;;;17.13;15.32;;;;;;;-2.81;100.00;96985.97;5072528;28;20388;-66
2022/04/04 03:46:38;;;;;;;19.50;15.47;;;;;;;-2.99;100.00;96990.97;5070063;28;20844;-65
2022/04/04 03:49:07;;;;;;;18.77;15.35;;;;;;;-3.06;100.00;96980.47;5054216;28;20787;-66
2022/04/04 03:51:33;;;;;;;19.02;15.48;;;;;;;-3.05;100.00;96976.16;5071855;28;20400;-66
2022/04/04 03:53:58;;;;;;;17.23;12.97;;;;;;;-3.14;100.00;96982.91;5073466;28;20181;-66
2022/04/04 03:56:24;;;;;;;18.77;13.27;;;;;;;-3.28;100.00;96985.06;5073423;28;20193;-66
2022/04/04 03:58:52;;;;;;;18.77;12.83;;;;;;;-3.20;100.00;96980.91;5073795;28;20690;-65
2022/04/04 04:01:17;;;;;;;16.00;12.50;;;;;;;-3.09;100.00;96982.50;5073846;28;20261;-65
2022/04/04 04:03:43;;;;;;;16.70;12.23;;;;;;;-2.97;100.00;96986.53;5073109;28;20554;-65
2022/04/04 04:06:11;;;;;;;17.57;12.43;;;;;;;-3.14;100.00;96994.91;5055423;28;20216;-66
2022/04/04 04:08:41;;;;;;;16.63;12.57;;;;;;;-3.07;100.00;96994.25;5073124;28;20177;-67
2022/04/04 04:11:07;;;;;;;17.30;12.47;;;;;;;-3.13;100.00;96986.28;5072788;28;20200;-66
2022/04/04 04:13:33;;;;;;;18.60;12.40;;;;;;;-3.11;100.00;96989.50;5073028;28;20588;-66
2022/04/04 04:15:58;;;;;;;21.73;14.00;;;;;;;-3.28;100.00;96991.00;5073037;28;20234;-66
2022/04/04 04:18:24;;;;;;;17.23;12.40;;;;;;;-3.12;100.00;96977.66;5055190;28;20212;-65
2022/04/04 04:20:50;;;;;;;18.53;12.50;;;;;;;-3.21;100.00;96970.78;5072855;28;20559;-66
2022/04/04 04:23:16;;;;;;;16.70;12.40;;;;;;;-3.09;100.00;96975.63;5072812;28;20185;-66
2022/04/04 04:25:42;;;;;;;15.47;12.83;;;;;;;-3.13;100.00;96974.28;5072433;28;20209;-67
2022/04/04 04:28:09;;;;;;;16.70;11.80;;;;;;;-2.99;100.00;96978.97;5072749;28;20572;-66
2022/04/04 04:30:34;;;;;;;17.77;12.07;;;;;;;-3.03;100.00;96969.94;5054824;28;20544;-66
2022/04/04 04:33:00;;;;;;;15.07;11.60;;;;;;;-2.99;100.00;96966.16;5072603;28;20291;-66
2022/04/04 04:35:25;;;;;;;15.47;10.93;;;;;;;-3.07;100.00;96967.81;5072821;28;20248;-66
2022/04/04 04:37:51;;;;;;;16.77;11.57;;;;;;;-3.11;100.00;96971.56;5071844;28;20182;-66
2022/04/04 04:40:17;;;;;;;14.50;11.70;;;;;;;-3.09;100.00;96967.94;5072641;28;20666;-66
2022/04/04 04:42:44;;;;;;;14.10;11.07;;;;;;;-3.05;100.00;96971.00;5072606;28;20192;-66
2022/04/04 04:45:10;;;;;;;16.47;11.90;;;;;;;-3.14;100.00;96962.41;5053823;28;20677;-67
2022/04/04 04:47:36;;;;;;;16.27;10.77;;;;;;;-3.10;100.00;96963.75;5070325;28;20197;-66
2022/04/04 04:50:04;;;;;;;16.70;11.43;;;;;;;-3.03;100.00;96959.69;5072279;28;20189;-66
2022/04/04 04:52:30;;;;;;;20.13;12.23;;;;;;;-3.12;100.00;96968.19;5072214;28;20182;-66
2022/04/04 04:54:55;;;;;;;14.03;10.93;;;;;;;-3.22;100.00;96966.59;5054371;28;20197;-66
2022/04/04 04:57:22;;;;;;;14.57;11.00;;;;;;;-3.10;100.00;96968.06;5071380;28;20177;-66
2022/04/04 04:59:48;;;;;;;16.87;11.43;;;;;;;-3.10;100.00;96961.19;5071931;28;20280;-66
2022/04/04 05:02:13;;;;;;;15.27;11.87;;;;;;;-2.98;100.00;96959.28;5073803;28;20209;-66
2022/04/04 05:04:39;;;;;;;14.10;10.60;;;;;;;-3.01;100.00;96965.47;5076329;28;20189;-66
2022/04/04 05:07:07;;;;;;;14.77;10.50;;;;;;;-3.10;100.00;96963.75;5076085;28;20181;-66
2022/04/04 05:09:32;;;;;;;15.33;10.97;;;;;;;-3.03;100.00;96964.00;5075901;28;20285;-66
2022/04/04 05:11:58;;;;;;;11.90;9.53;;;;;;;-3.08;100.00;96964.44;5075922;28;20181;-66
2022/04/04 05:14:23;;;;;;;11.90;10.50;;;;;;;-3.00;100.00;96958.59;5076347;28;20177;-66
2022/04/04 05:16:49;;;;;;;13.27;9.30;;;;;;;-2.92;100.00;96951.03;5057582;28;20294;-67
2022/04/04 05:19:17;;;;;;;13.10;9.10;;;;;;;-2.86;100.00;96952.22;5076070;28;20196;-67
2022/04/04 05:21:43;;;;;;;14.43;10.17;;;;;;;-2.86;100.00;96955.59;5074710;28;20653;-66
2022/04/04 05:24:09;;;;;;;13.07;9.07;;;;;;;-2.89;100.00;96955.88;5075926;28;20185;-66
2022/04/04 05:26:34;;;;;;;15.43;9.13;;;;;;;-2.85;100.00;96970.06;5075361;28;20229;-67
2022/04/04 05:29:00;;;;;;;12.57;9.63;;;;;;;-2.88;100.00;96959.25;5075558;28;20185;-66
2022/04/04 05:31:26;;;;;;;13.03;10.27;;;;;;;-2.85;100.00;96964.09;5075678;28;20235;-66
2022/04/04 05:33:51;;;;;;;11.73;9.77;;;;;;;-2.63;100.00;96972.28;5058294;28;20173;-66
2022/04/04 05:36:17;;;;;;;13.17;9.27;;;;;;;-2.58;100.00;96967.53;5075979;28;20583;-66
2022/04/04 05:38:42;;;;;;;13.30;9.67;;;;;;;-2.30;99.14;96968.38;5075372;28;20184;-66
2022/04/04 05:41:08;;;;;;;12.80;10.00;;;;;;;-2.13;98.18;96967.63;5075653;28;20702;-66
2022/04/04 05:43:33;;;;;;;11.13;9.47;;;;;;;-1.99;96.63;96960.34;5074732;28;20272;-66
2022/04/04 05:45:59;;;;;;;14.43;9.90;;;;;;;-1.77;94.53;96960.75;5055203;28;20262;-65
2022/04/04 05:48:30;;;;;;;12.27;8.80;;;;;;;-1.66;93.06;96967.44;5075359;28;20173;-66
2022/04/04 05:50:55;;;;;;;13.07;8.70;;;;;;;-1.67;93.04;96969.19;5057714;28;20192;-66
2022/04/04 05:53:21;;;;;;;11.93;9.20;;;;;;;-1.42;91.17;96969.44;5075102;28;20178;-66
2022/04/04 05:55:46;;;;;;;11.83;8.20;;;;;;;-1.60;91.31;96966.84;5056871;28;20236;-66
2022/04/04 05:58:12;;;;;;;11.83;7.70;;;;;;;-1.39;89.20;96967.38;5075116;28;20177;-67
2022/04/04 06:00:37;;;;;;;9.70;7.20;;;;;;;-1.05;88.56;96964.09;5057844;28;20196;-64
2022/04/04 06:03:03;;;;;;;7.80;7.00;;;;;;;-0.82;87.50;96959.28;5076193;28;20176;-65
2022/04/04 06:05:30;;;;;;;9.77;7.53;;;;;;;-0.80;87.03;96960.75;5076967;28;20220;-65
2022/04/04 06:07:56;;;;;;;7.97;6.93;;;;;;;-0.54;85.45;96971.84;5079583;28;20185;-65
2022/04/04 06:10:21;;;;;;;8.77;6.60;;;;;;;-0.50;83.95;96972.31;5082236;28;20228;-66
2022/04/04 06:12:47;;;;;;;10.13;7.13;;;;;;;-0.31;82.55;96968.72;5082427;28;20224;-65
2022/04/04 06:15:14;;;;;;;11.73;7.03;;;;;;;-0.30;83.52;96968.56;5083209;28;20185;-65
2022/04/04 06:17:39;;;;;;;9.07;7.07;;;;;;;-0.27;82.08;96970.84;5081782;28;20181;-65
2022/04/04 06:20:06;;;;;;;19.03;7.43;;;;;;;-0.08;82.89;96967.22;5078063;28;20188;-65
2022/04/04 06:22:36;;;;;;;11.83;6.80;;;;;;;0.09;82.30;96966.31;5074696;28;20276;-64
2022/04/04 06:25:04;;;;;;;6.83;6.10;;;;;;;0.44;80.11;96967.03;5073285;28;20236;-65
2022/04/04 06:27:30;;;;;;;10.53;7.43;;;;;;;0.62;79.69;96960.75;5075232;28;20257;-65
2022/04/04 06:29:56;;;;;;;8.30;6.60;;;;;;;0.67;78.63;96968.03;5075684;28;20189;-65
2022/04/04 06:32:23;;;;;;;12.37;6.70;;;;;;;1.09;77.30;96965.28;5040156;28;20182;-65
2022/04/04 06:34:49;;;;;;;8.57;6.47;;;;;;;0.90;77.07;96955.28;5074620;28;20505;-66
2022/04/04 06:37:14;;;;;;;9.47;6.80;;;;;;;0.81;77.09;96957.06;5074434;28;20187;-66
2022/04/04 06:39:39;;;;;;;11.43;7.43;;;;;;;0.56;76.86;96958.81;5074186;28;20264;-65
2022/04/04 06:42:05;;;;;;;10.57;7.07;;;;;;;0.64;77.18;96964.00;5073764;28;20205;-65
2022/04/04 06:44:30;;;;;;;9.17;7.00;;;;;;;0.93;77.48;96958.34;5074098;28;20586;-67
2022/04/04 06:46:56;;;;;;;11.10;7.13;;;;;;;1.02;76.84;96957.38;5072149;28;20281;-65
2022/04/04 06:49:22;;;;;;;13.03;7.60;;;;;;;1.23;76.62;96956.84;5074589;28;20264;-66
2022/04/04 06:51:48;;;;;;;13.17;7.43;;;;;;;1.17;75.11;96958.31;5059781;28;20209;-66
2022/04/04 06:54:14;;;;;;;10.43;6.90;;;;;;;1.33;74.74;96957.50;5073875;28;20205;-66
2022/04/04 06:56:39;;;;;;;7.87;6.70;;;;;;;1.47;74.80;96949.06;5074085;28;20227;-66
2022/04/04 06:59:05;;;;;;;7.50;6.33;;;;;;;1.64;74.30;96952.41;5055488;28;20227;-67
2022/04/04 07:01:31;;;;;;;9.13;7.40;;;;;;;1.77;73.99;96950.13;5073868;28;20197;-67
2022/04/04 07:03:58;;;;;;;11.80;7.47;;;;;;;1.98;73.00;96952.13;5072750;28;20573;-66
2022/04/04 07:06:27;;;;;;;9.10;7.03;;;;;;;2.10;72.77;96948.19;5073191;28;20662;-66
2022/04/04 07:08:52;;;;;;;11.70;6.77;;;;;;;2.18;71.88;96942.97;5071701;28;20601;-67
2022/04/04 07:11:18;;;;;;;7.83;6.70;;;;;;;2.30;70.92;96946.78;5073632;28;20181;-67
2022/04/04 07:13:44;;;;;;;8.93;6.20;;;;;;;3.50;91.36;96942.56;5069750;28;20229;-69
2022/04/04 07:16:09;;;;;;;10.73;7.20;;;;;;;3.13;70.01;96944.19;5070716;28;20532;-68
2022/04/04 07:18:35;;;;;;;8.40;6.37;;;;;;;3.19;67.97;96940.09;5073590;28;20185;-67
2022/04/04 07:21:00;;;;;;;7.90;6.47;;;;;;;3.10;69.60;96939.41;5071676;28;20189;-68
2022/04/04 07:23:26;;;;;;;7.30;6.20;;;;;;;3.47;67.12;96945.50;5072633;28;20224;-68
2022/04/04 07:25:51;;;;;;;8.67;6.40;;;;;;;3.47;65.71;96937.72;5072353;28;20201;-68
2022/04/04 07:28:16;;;;;;;7.50;5.90;;;;;;;3.42;64.29;96940.03;5073159;28;20592;-68
2022/04/04 07:30:43;;;;;;;7.00;5.70;;;;;;;3.66;63.80;96943.19;5072735;28;20177;-69
2022/04/04 07:33:10;;;;;;;7.70;6.10;;;;;;;3.86;63.87;96953.81;5073225;28;20232;-67
2022/04/04 07:35:35;;;;;;;8.20;6.17;;;;;;;4.08;63.56;96939.09;5072580;28;20664;-69
2022/04/04 07:38:01;;;;;;;10.93;5.73;;;;;;;4.09;62.80;96949.31;5072829;28;20185;-68
2022/04/04 07:40:27;;;;;;;6.73;5.37;;;;;;;4.00;63.32;96940.03;5072924;28;20181;-69
2022/04/04 07:42:53;;;;;;;7.73;5.83;;;;;;;4.06;61.92;96938.50;5072564;28;20642;-68
2022/04/04 07:45:19;;;;;;;5.90;5.10;;;;;;;4.08;62.29;96934.72;5069919;28;20213;-68
2022/04/04 07:47:45;;;;;;;11.20;6.10;;;;;;;4.09;60.93;96938.94;5073029;28;20632;-68
2022/04/04 07:50:13;;;;;;;6.87;5.07;;;;;;;4.03;59.94;96934.47;5072592;28;20514;-68
2022/04/04 07:52:40;;;;;;;7.40;5.40;;;;;;;3.96;58.91;96932.78;5072813;28;20181;-68
2022/04/04 07:55:06;;;;;;;6.47;5.10;;;;;;;3.87;59.62;96939.88;5072455;28;20181;-69
2022/04/04 07:57:31;;;;;;;5.20;4.70;;;;;;;4.06;59.49;96941.91;5071998;28;20192;-68
2022/04/04 07:59:57;;;;;;;5.03;4.53;;;;;;;4.32;58.64;96941.38;5054291;28;20197;-68
2022/04/04 08:02:22;;;;;;;8.37;5.50;;;;;;;4.27;58.45;96938.53;5072554;28;20174;-68
2022/04/04 08:04:48;;;;;;;8.70;5.27;;;;;;;4.25;58.56;96940.50;5072610;28;20744;-68
2022/04/04 08:07:15;;;;;;;5.57;4.83;;;;;;;4.05;59.00;96931.72;5072436;28;20185;-69
2022/04/04 08:09:40;;;;;;;7.90;5.47;;;;;;;4.33;59.62;96932.63;5076175;28;20299;-69
2022/04/04 08:12:06;;;;;;;7.47;5.70;;;;;;;4.21;58.80;96933.28;5072473;28;20684;-67
2022/04/04 08:14:31;;;;;;;5.80;5.27;;;;;;;4.40;58.53;96938.66;5072579;28;20908;-68
2022/04/04 08:16:57;;;;;;;5.97;5.27;;;;;;;4.41;57.64;96926.50;5069833;28;20664;-68
2022/04/04 08:19:22;;;;;;;6.60;5.63;;;;;;;4.61;56.84;96922.31;5067761;28;20173;-68
2022/04/04 08:21:48;;;;;;;7.03;5.00;;;;;;;4.73;57.56;96915.66;5069058;28;20181;-68
2022/04/04 08:24:14;;;;;;;7.13;4.77;;;;;;;4.69;55.65;96911.00;5064965;28;20192;-70
2022/04/04 08:26:40;;;;;;;5.23;4.67;;;;;;;4.89;55.83;96911.97;5071481;28;20228;-69
2022/04/04 08:29:09;;;;;;;5.10;4.43;;;;;;;5.00;54.18;96909.69;5054435;28;20238;-68
2022/04/04 08:31:35;;;;;;;6.10;4.53;;;;;;;5.00;54.25;96906.28;5072237;28;20272;-68
2022/04/04 08:34:02;;;;;;;6.20;4.80;;;;;;;5.32;52.98;96907.50;5067083;28;20284;-69
2022/04/04 08:36:27;;;;;;;4.90;4.50;;;;;;;5.41;53.74;96895.94;5072187;28;20185;-69
2022/04/04 08:38:52;;;;;;;5.43;4.80;;;;;;;5.46;53.95;96903.19;5071444;28;20247;-69
2022/04/04 08:41:19;;;;;;;5.37;4.87;;;;;;;5.52;52.83;96890.22;5071874;28;20174;-68
2022/04/04 08:43:51;;;;;;;5.10;4.60;;;;;;;5.55;53.48;96896.84;5070982;28;20182;-69
2022/04/04 08:46:17;;;;;;;6.63;4.90;;;;;;;5.22;53.29;96892.25;5071357;28;20665;-69
2022/04/04 08:48:44;;;;;;;6.00;5.03;;;;;;;5.45;52.25;96894.59;5071887;28;20276;-69
2022/04/04 08:51:10;;;;;;;6.57;5.37;;;;;;;5.32;51.93;96890.09;5072008;28;20671;-70
2022/04/04 08:53:37;;;;;;;7.40;5.50;;;;;;;5.42;52.38;96889.75;5071935;28;20637;-70
2022/04/04 08:56:04;;;;;;;5.33;4.70;;;;;;;5.36;52.41;96883.53;5072065;28;20185;-70
2022/04/04 08:58:30;;;;;;;6.37;5.20;;;;;;;5.42;51.42;96884.56;5072054;28;20204;-69
2022/04/04 09:00:56;;;;;;;6.87;5.17;;;;;;;5.35;51.87;96889.72;5071591;28;20185;-70
2022/04/04 09:03:23;;;;;;;6.43;5.60;;;;;;;5.18;51.67;96882.44;5071328;28;20188;-69
2022/04/04 09:05:56;;;;;;;5.80;4.77;;;;;;;5.16;52.45;96880.00;5071938;28;20204;-70
2022/04/04 09:08:23;;;;;;;7.30;5.00;;;;;;;5.27;51.52;96873.47;5072211;28;20177;-70
2022/04/04 09:10:53;;;;;;;6.60;5.03;;;;;;;4.96;51.15;96873.84;5071702;28;20173;-69
2022/04/04 09:13:19;;;;;;;5.60;5.03;;;;;;;5.03;51.63;96874.72;5071987;28;20166;-69
2022/04/04 09:16:05;;;;;;;5.57;4.83;;;;;;;5.01;51.80;96861.91;5071579;28;20186;-69
2022/04/04 09:18:36;;;;;;;7.13;4.90;;;;;;;4.92;51.47;96863.06;5064171;28;20170;-71
2022/04/04 09:21:07;;;;;;;5.90;5.30;;;;;;;4.72;52.53;96864.72;5071431;28;20180;-70
2022/04/04 09:23:54;;;;;;;5.10;4.60;;;;;;;4.89;51.23;96854.84;5054674;28;20257;-70
2022/04/04 09:26:44;;;;;;;5.60;5.10;;;;;;;4.65;49.84;96855.25;5072150;28;20216;-70
2022/04/04 09:29:13;;;;;;;6.10;5.50;;;;;;;4.78;50.58;96848.38;5058556;28;20201;-70
2022/04/04 09:32:11;;;;;;;5.67;4.90;;;;;;;4.83;48.43;96838.22;5071531;28;20185;-70
2022/04/04 09:35:12;;;;;;;6.17;4.63;;;;;;;4.71;48.15;96837.13;5042297;28;20180;-70
2022/04/04 09:37:40;;;;;;;5.77;4.70;;;;;;;4.59;48.21;96836.03;5066374;28;20185;-70
2022/04/04 09:40:14;;;;;;;6.23;5.07;;;;;;;4.63;48.53;96829.47;5071526;28;20205;-71
2022/04/04 09:42:40;;;;;;;5.50;4.90;;;;;;;4.85;47.98;96822.44;5071600;28;20552;-70
2022/04/04 09:45:09;;;;;;;7.50;5.43;;;;;;;4.53;49.50;96822.03;5069007;28;20591;-71
2022/04/04 09:48:11;;;;;;;7.53;6.03;;;;;;;4.58;48.18;96816.25;5072290;28;20181;-71
2022/04/04 09:50:45;;;;;;;5.17;4.67;;;;;;;4.59;48.51;96810.09;5057823;28;20189;-71
2022/04/04 09:53:29;;;;;;;5.73;5.07;;;;;;;4.42;50.54;96804.38;5073766;28;20538;-72
2022/04/04 09:55:57;;;;;;;5.80;4.77;;;;;;;4.55;49.48;96803.69;5057149;28;20638;-73
2022/04/04 09:58:28;;;;;;;5.50;5.00;;;;;;;4.65;48.66;96793.75;5075617;28;20193;-72
2022/04/04 10:00:55;;;;;;;5.20;4.70;;;;;;;4.82;50.00;96796.88;5075076;28;20223;-72
2022/04/04 10:03:22;;;;;;;5.17;4.53;;;;;;;4.70;50.32;96795.78;5075310;28;20568;-73
2022/04/04 10:05:55;;;;;;;5.17;4.67;;;;;;;4.79;49.04;96798.03;5075064;28;20212;-73
2022/04/04 10:08:24;;;;;;;5.80;5.10;;;;;;;5.03;49.72;96791.59;5075289;28;20177;-72
2022/04/04 10:10:51;;;;;;;5.47;4.83;;;;;;;4.97;49.60;96787.16;5074549;28;20284;-71
2022/04/04 10:13:17;;;;;;;5.27;4.77;;;;;;;4.97;49.31;96779.38;5056472;28;20334;-72
2022/04/04 10:15:43;;;;;;;5.30;4.80;;;;;;;4.86;49.27;96774.72;5075092;28;20268;-72
2022/04/04 10:18:10;;;;;;;5.33;4.83;;;;;;;5.02;50.00;96764.03;5074499;28;20189;-73
2022/04/04 10:20:36;;;;;;;7.43;5.30;;;;;;;4.79;50.84;96769.47;5068535;28;20242;-73
2022/04/04 10:23:04;;;;;;;5.70;5.10;;;;;;;4.67;50.07;96765.84;5056748;28;20205;-73
2022/04/04 10:25:32;;;;;;;5.70;5.10;;;;;;;4.96;51.39;96759.59;5074273;28;20197;-73
2022/04/04 10:28:01;;;;;;;5.87;5.10;;;;;;;5.04;51.67;96764.63;5074395;28;20599;-72
2022/04/04 10:30:48;;;;;;;5.57;4.97;;;;;;;4.96;52.06;96757.81;5074482;28;20209;-72
2022/04/04 10:33:24;;;;;;;5.70;5.17;;;;;;;5.07;52.88;96748.66;5074810;28;20177;-72
2022/04/04 10:36:08;;;;;;;6.70;5.07;;;;;;;5.33;51.71;96742.78;5073497;28;20192;-72
2022/04/04 10:38:38;;;;;;;6.30;5.63;;;;;;;5.38;53.23;96743.81;5051398;28;20205;-72
2022/04/04 10:41:08;;;;;;;7.13;5.50;;;;;;;5.24;52.86;96749.94;5074234;28;20220;-72
2022/04/04 10:43:38;;;;;;;6.30;5.10;;;;;;;5.47;52.33;96738.41;5072188;28;20189;-72
2022/04/04 10:46:13;;;;;;;6.20;5.60;;;;;;;5.36;51.94;96739.78;5072871;28;20288;-71
2022/04/04 10:48:40;;;;;;;6.10;5.43;;;;;;;5.54;51.57;96732.25;5050227;28;20184;-72
2022/04/04 10:51:20;;;;;;;6.80;5.20;;;;;;;5.88;50.27;96717.56;5074152;28;20178;-72
2022/04/04 10:54:06;;;;;;;6.00;5.33;;;;;;;5.66;49.44;96714.28;5074173;28;20269;-72
2022/04/04 10:56:45;;;;;;;5.90;5.40;;;;;;;6.08;49.94;96703.56;5056035;28;20516;-72
2022/04/04 10:59:19;;;;;;;6.13;5.20;;;;;;;6.11;51.79;96705.78;5067026;28;20189;-72
2022/04/04 11:01:47;;;;;;;5.73;5.13;;;;;;;5.36;50.43;96700.81;5060227;28;20184;-72
2022/04/04 11:04:26;;;;;;;5.60;5.10;;;;;;;5.67;51.96;96702.91;5094326;28;20185;-72
2022/04/04 11:10:05;;;;;;;4.87;4.40;;;;;;;5.79;52.76;96696.94;5090456;28;20274;-72
2022/04/04 11:13:00;;;;;;;6.50;5.10;;;;;;;5.82;50.76;96691.31;5073420;28;20170;-72
2022/04/04 11:15:42;;;;;;;5.33;4.73;;;;;;;5.85;49.96;96690.13;5047301;28;20189;-72
2022/04/04 11:18:08;;;;;;;6.70;5.13;;;;;;;6.05;50.51;96685.75;5070823;28;20246;-72
2022/04/04 11:20:33;;;;;;;5.23;4.67;;;;;;;6.00;50.72;96672.56;5070395;28;20610;-71
2022/04/04 11:23:08;;;;;;;6.40;4.93;;;;;;;5.95;49.38;96671.56;5073329;28;20184;-72
2022/04/04 11:25:35;;;;;;;5.43;4.80;;;;;;;5.98;50.27;96661.53;5070429;28;20190;-72
2022/04/04 11:28:01;;;;;;;4.87;4.37;;;;;;;6.04;49.63;96660.72;5054888;28;20316;-70
2022/04/04 11:30:27;;;;;;;5.33;4.73;;;;;;;5.72;50.09;96659.69;5074374;28;20234;-72
2022/04/04 11:32:56;;;;;;;5.57;4.57;;;;;;;5.89;51.02;96662.75;5073543;28;20189;-72
2022/04/04 11:35:34;;;;;;;6.53;5.20;;;;;;;6.26;51.11;96654.31;5073581;28;20193;-73
2022/04/04 11:38:12;;;;;;;6.37;4.93;;;;;;;6.47;49.59;96645.44;5073628;28;20165;-73